sensor_id;sensor_type;location;lat;lon;timestamp;pressure;altitude;pressure_sealevel;temperature;humidity
68193;BME280;55012;47.562;18.414;2023-06-10T00:00:17;100230.47;;;15.48;100.00
68193;BME280;55012;47.562;18.414;2023-06-10T00:02:43;100227.63;;;15.44;100.00
68193;BME280;55012;47.562;18.414;2023-06-10T00:05:09;100230.00;;;15.46;100.00
68193;BME280;55012;47.562;18.414;2023-06-10T00:07:35;100224.28;;;15.51;100.00
68193;BME280;55012;47.562;18.414;2023-06-10T00:10:05;100232.22;;;15.56;100.00
68193;BME280;55012;47.562;18.414;2023-06-10T00:12:31;100222.88;;;15.57;100.00
68193;BME280;55012;47.562;18.414;2023-06-10T00:15:03;100224.72;;;15.53;100.00
68193;BME280;55012;47.562;18.414;2023-06-10T00:17:28;100224.66;;;15.50;100.00
68193;BME280;55012;47.562;18.414;2023-06-10T00:19:54;100228.84;;;15.47;100.00
68193;BME280;55012;47.562;18.414;2023-06-10T00:22:20;100226.50;;;15.45;100.00
68193;BME280;55012;47.562;18.414;2023-06-10T00:24:47;100225.69;;;15.45;100.00
68193;BME280;55012;47.562;18.414;2023-06-10T00:27:13;100223.75;;;15.45;100.00
68193;BME280;55012;47.562;18.414;2023-06-10T00:29:38;100222.97;;;15.45;100.00
68193;BME280;55012;47.562;18.414;2023-06-10T00:32:04;100221.03;;;15.45;100.00
68193;BME280;55012;47.562;18.414;2023-06-10T00:34:30;100231.94;;;15.45;100.00
68193;BME280;55012;47.562;18.414;2023-06-10T00:36:59;100224.47;;;15.42;100.00
68193;BME280;55012;47.562;18.414;2023-06-10T00:39:24;100228.63;;;15.36;100.00
68193;BME280;55012;47.562;18.414;2023-06-10T00:41:50;100224.22;;;15.32;100.00
68193;BME280;55012;47.562;18.414;2023-06-10T00:44:16;100226.50;;;15.30;100.00
68193;BME280;55012;47.562;18.414;2023-06-10T00:46:43;100233.09;;;15.29;100.00
68193;BME280;55012;47.562;18.414;2023-06-10T00:49:09;100223.69;;;15.26;100.00
68193;BME280;55012;47.562;18.414;2023-06-10T00:51:35;100221.22;;;15.21;100.00
68193;BME280;55012;47.562;18.414;2023-06-10T00:54:01;100219.94;;;15.15;100.00
68193;BME280;55012;47.562;18.414;2023-06-10T00:56:27;100229.06;;;15.07;100.00
68193;BME280;55012;47.562;18.414;2023-06-10T00:58:53;100224.22;;;15.00;100.00
68193;BME280;55012;47.562;18.414;2023-06-10T01:01:19;100219.38;;;14.94;100.00
68193;BME280;55012;47.562;18.414;2023-06-10T01:03:45;100223.03;;;14.85;100.00
68193;BME280;55012;47.562;18.414;2023-06-10T01:06:28;100224.44;;;14.79;100.00
68193;BME280;55012;47.562;18.414;2023-06-10T01:09:17;100225.84;;;14.73;100.00
68193;BME280;55012;47.562;18.414;2023-06-10T01:12:16;100221.44;;;14.69;100.00
68193;BME280;55012;47.562;18.414;2023-06-10T01:14:44;100222.94;;;14.66;100.00
68193;BME280;55012;47.562;18.414;2023-06-10T01:17:11;100224.41;;;14.64;100.00
68193;BME280;55012;47.562;18.414;2023-06-10T01:19:37;100225.09;;;14.60;100.00
68193;BME280;55012;47.562;18.414;2023-06-10T01:22:03;100225.88;;;14.61;100.00
68193;BME280;55012;47.562;18.414;2023-06-10T01:24:29;100218.94;;;14.64;100.00
68193;BME280;55012;47.562;18.414;2023-06-10T01:27:00;100221.66;;;14.64;100.00
68193;BME280;55012;47.562;18.414;2023-06-10T01:29:33;100230.38;;;14.69;100.00
68193;BME280;55012;47.562;18.414;2023-06-10T01:32:19;100234.25;;;14.68;100.00
68193;BME280;55012;47.562;18.414;2023-06-10T01:34:48;100236.63;;;14.70;100.00
68193;BME280;55012;47.562;18.414;2023-06-10T01:37:18;100239.47;;;14.73;100.00
68193;BME280;55012;47.562;18.414;2023-06-10T01:39:45;100236.38;;;14.75;100.00
68193;BME280;55012;47.562;18.414;2023-06-10T01:42:12;100242.28;;;14.77;100.00
68193;BME280;55012;47.562;18.414;2023-06-10T01:44:39;100233.31;;;14.76;100.00
68193;BME280;55012;47.562;18.414;2023-06-10T01:47:04;100243.41;;;14.76;100.00
68193;BME280;55012;47.562;18.414;2023-06-10T01:49:30;100239.78;;;14.72;100.00
68193;BME280;55012;47.562;18.414;2023-06-10T01:51:55;100243.22;;;14.69;100.00
68193;BME280;55012;47.562;18.414;2023-06-10T01:54:21;100228.25;;;14.63;100.00
68193;BME280;55012;47.562;18.414;2023-06-10T01:56:46;100240.22;;;14.58;100.00
68193;BME280;55012;47.562;18.414;2023-06-10T01:59:12;100233.06;;;14.53;100.00
68193;BME280;55012;47.562;18.414;2023-06-10T02:01:37;100225.59;;;14.50;100.00
68193;BME280;55012;47.562;18.414;2023-06-10T02:04:03;100231.72;;;14.47;100.00
68193;BME280;55012;47.562;18.414;2023-06-10T02:06:28;100244.66;;;14.50;100.00
68193;BME280;55012;47.562;18.414;2023-06-10T02:08:54;100238.50;;;14.53;100.00
68193;BME280;55012;47.562;18.414;2023-06-10T02:11:19;100230.47;;;14.57;100.00
68193;BME280;55012;47.562;18.414;2023-06-10T02:13:45;100243.81;;;14.62;100.00
68193;BME280;55012;47.562;18.414;2023-06-10T02:16:11;100248.59;;;14.65;100.00
68193;BME280;55012;47.562;18.414;2023-06-10T02:18:38;100250.59;;;14.68;100.00
68193;BME280;55012;47.562;18.414;2023-06-10T02:21:03;100257.38;;;14.74;100.00
68193;BME280;55012;47.562;18.414;2023-06-10T02:23:29;100254.03;;;14.81;100.00
68193;BME280;55012;47.562;18.414;2023-06-10T02:25:54;100257.75;;;14.88;100.00
68193;BME280;55012;47.562;18.414;2023-06-10T02:28:20;100250.91;;;14.95;100.00
68193;BME280;55012;47.562;18.414;2023-06-10T02:30:45;100256.91;;;15.00;100.00
68193;BME280;55012;47.562;18.414;2023-06-10T02:33:11;100248.03;;;15.03;100.00
68193;BME280;55012;47.562;18.414;2023-06-10T02:35:41;100244.94;;;15.05;100.00
68193;BME280;55012;47.562;18.414;2023-06-10T02:38:06;100238.72;;;15.04;100.00
68193;BME280;55012;47.562;18.414;2023-06-10T02:40:32;100227.81;;;15.04;100.00
68193;BME280;55012;47.562;18.414;2023-06-10T02:42:57;100224.28;;;15.04;100.00
68193;BME280;55012;47.562;18.414;2023-06-10T02:45:24;100226.66;;;15.05;100.00
68193;BME280;55012;47.562;18.414;2023-06-10T02:47:49;100230.63;;;15.08;100.00
68193;BME280;55012;47.562;18.414;2023-06-10T02:50:15;100229.13;;;15.10;100.00
68193;BME280;55012;47.562;18.414;2023-06-10T02:52:40;100220.16;;;15.10;100.00
68193;BME280;55012;47.562;18.414;2023-06-10T02:55:06;100228.28;;;15.06;100.00
68193;BME280;55012;47.562;18.414;2023-06-10T02:57:31;100220.78;;;15.03;100.00
68193;BME280;55012;47.562;18.414;2023-06-10T02:59:57;100223.06;;;15.01;100.00
68193;BME280;55012;47.562;18.414;2023-06-10T03:02:24;100224.91;;;14.97;100.00
68193;BME280;55012;47.562;18.414;2023-06-10T03:04:56;100218.94;;;14.92;100.00
68193;BME280;55012;47.562;18.414;2023-06-10T03:07:21;100218.81;;;14.88;100.00
68193;BME280;55012;47.562;18.414;2023-06-10T03:09:48;100227.78;;;14.88;100.00
68193;BME280;55012;47.562;18.414;2023-06-10T03:12:14;100240.38;;;14.93;100.00
68193;BME280;55012;47.562;18.414;2023-06-10T03:14:39;100248.63;;;14.97;100.00
68193;BME280;55012;47.562;18.414;2023-06-10T03:17:05;100249.09;;;14.99;100.00
68193;BME280;55012;47.562;18.414;2023-06-10T03:19:31;100249.09;;;14.99;100.00
68193;BME280;55012;47.562;18.414;2023-06-10T03:22:10;100251.91;;;15.02;100.00
68193;BME280;55012;47.562;18.414;2023-06-10T03:24:36;100255.84;;;15.05;100.00
68193;BME280;55012;47.562;18.414;2023-06-10T03:27:15;100260.63;;;15.08;100.00
68193;BME280;55012;47.562;18.414;2023-06-10T03:29:40;100262.63;;;15.11;100.00
68193;BME280;55012;47.562;18.414;2023-06-10T03:32:06;100272.03;;;15.13;100.00
68193;BME280;55012;47.562;18.414;2023-06-10T03:34:31;100275.53;;;15.14;100.00
68193;BME280;55012;47.562;18.414;2023-06-10T03:36:57;100282.25;;;15.16;100.00
68193;BME280;55012;47.562;18.414;2023-06-10T03:39:23;100277.94;;;15.15;100.00
68193;BME280;55012;47.562;18.414;2023-06-10T03:41:52;100286.91;;;15.16;100.00
68193;BME280;55012;47.562;18.414;2023-06-10T03:44:17;100288.06;;;15.15;100.00
68193;BME280;55012;47.562;18.414;2023-06-10T03:46:42;100286.56;;;15.17;100.00
68193;BME280;55012;47.562;18.414;2023-06-10T03:49:08;100299.47;;;15.21;100.00
68193;BME280;55012;47.562;18.414;2023-06-10T03:51:36;100298.88;;;15.27;100.00
68193;BME280;55012;47.562;18.414;2023-06-10T03:54:01;100299.84;;;15.35;100.00
68193;BME280;55012;47.562;18.414;2023-06-10T03:56:27;100300.41;;;15.40;100.00
68193;BME280;55012;47.562;18.414;2023-06-10T03:58:53;100304.59;;;15.38;100.00
68193;BME280;55012;47.562;18.414;2023-06-10T04:01:19;100297.47;;;15.33;100.00
68193;BME280;55012;47.562;18.414;2023-06-10T04:03:46;100297.06;;;15.31;100.00
68193;BME280;55012;47.562;18.414;2023-06-10T04:06:14;100289.75;;;15.35;100.00
68193;BME280;55012;47.562;18.414;2023-06-10T04:08:41;100298.72;;;15.36;100.00
68193;BME280;55012;47.562;18.414;2023-06-10T04:11:06;100309.19;;;15.34;100.00
68193;BME280;55012;47.562;18.414;2023-06-10T04:13:32;100303.63;;;15.30;100.00
68193;BME280;55012;47.562;18.414;2023-06-10T04:15:57;100311.78;;;15.30;100.00
68193;BME280;55012;47.562;18.414;2023-06-10T04:18:23;100313.41;;;15.31;100.00
68193;BME280;55012;47.562;18.414;2023-06-10T04:20:48;100315.22;;;15.27;100.00
68193;BME280;55012;47.562;18.414;2023-06-10T04:23:14;100321.41;;;15.24;100.00
68193;BME280;55012;47.562;18.414;2023-06-10T04:25:39;100326.84;;;15.24;100.00
68193;BME280;55012;47.562;18.414;2023-06-10T04:28:05;100333.44;;;15.23;100.00
68193;BME280;55012;47.562;18.414;2023-06-10T04:30:30;100344.25;;;15.20;100.00
68193;BME280;55012;47.562;18.414;2023-06-10T04:32:57;100348.09;;;15.18;100.00
68193;BME280;55012;47.562;18.414;2023-06-10T04:35:22;100370.13;;;15.26;100.00
68193;BME280;55012;47.562;18.414;2023-06-10T04:37:48;100378.38;;;15.29;100.00
68193;BME280;55012;47.562;18.414;2023-06-10T04:40:13;100387.81;;;15.32;100.00
68193;BME280;55012;47.562;18.414;2023-06-10T04:42:41;100403.91;;;15.37;100.00
68193;BME280;55012;47.562;18.414;2023-06-10T04:45:07;100422.22;;;15.52;100.00
68193;BME280;55012;47.562;18.414;2023-06-10T04:47:33;100428.19;;;15.70;100.00
68193;BME280;55012;47.562;18.414;2023-06-10T04:50:00;100436.56;;;15.93;100.00
68193;BME280;55012;47.562;18.414;2023-06-10T04:52:26;100439.31;;;16.09;100.00
68193;BME280;55012;47.562;18.414;2023-06-10T04:54:52;100451.09;;;16.13;100.00
68193;BME280;55012;47.562;18.414;2023-06-10T04:57:17;100443.38;;;16.15;100.00
68193;BME280;55012;47.562;18.414;2023-06-10T04:59:43;100446.72;;;16.24;100.00
68193;BME280;55012;47.562;18.414;2023-06-10T05:02:09;100454.19;;;16.27;100.00
68193;BME280;55012;47.562;18.414;2023-06-10T05:04:34;100449.69;;;16.35;100.00
68193;BME280;55012;47.562;18.414;2023-06-10T05:07:00;100435.41;;;16.41;100.00
68193;BME280;55012;47.562;18.414;2023-06-10T05:09:25;100436.22;;;16.42;100.00
68193;BME280;55012;47.562;18.414;2023-06-10T05:11:51;100429.53;;;16.39;100.00
68193;BME280;55012;47.562;18.414;2023-06-10T05:14:18;100419.72;;;16.38;100.00
68193;BME280;55012;47.562;18.414;2023-06-10T05:16:46;100425.66;;;16.40;100.00
68193;BME280;55012;47.562;18.414;2023-06-10T05:19:11;100420.78;;;16.49;100.00
68193;BME280;55012;47.562;18.414;2023-06-10T05:21:37;100422.34;;;16.50;100.00
68193;BME280;55012;47.562;18.414;2023-06-10T05:24:02;100415.31;;;16.49;100.00
68193;BME280;55012;47.562;18.414;2023-06-10T05:26:28;100415.47;;;16.56;100.00
68193;BME280;55012;47.562;18.414;2023-06-10T05:28:54;100412.38;;;16.58;100.00
68193;BME280;55012;47.562;18.414;2023-06-10T05:31:19;100408.06;;;16.57;100.00
68193;BME280;55012;47.562;18.414;2023-06-10T05:33:45;100405.94;;;16.66;100.00
68193;BME280;55012;47.562;18.414;2023-06-10T05:36:10;100401.81;;;16.72;100.00
68193;BME280;55012;47.562;18.414;2023-06-10T05:38:36;100403.19;;;16.82;100.00
68193;BME280;55012;47.562;18.414;2023-06-10T05:41:01;100407.72;;;16.94;100.00
68193;BME280;55012;47.562;18.414;2023-06-10T05:43:27;100390.66;;;17.00;100.00
68193;BME280;55012;47.562;18.414;2023-06-10T05:45:52;100376.19;;;17.19;100.00
68193;BME280;55012;47.562;18.414;2023-06-10T05:48:18;100361.44;;;17.24;100.00
68193;BME280;55012;47.562;18.414;2023-06-10T05:50:45;100328.78;;;17.31;100.00
68193;BME280;55012;47.562;18.414;2023-06-10T05:53:16;100308.66;;;17.42;100.00
68193;BME280;55012;47.562;18.414;2023-06-10T05:55:43;100295.22;;;17.57;100.00
68193;BME280;55012;47.562;18.414;2023-06-10T05:58:09;100285.06;;;17.80;100.00
68193;BME280;55012;47.562;18.414;2023-06-10T06:00:35;100273.63;;;18.01;100.00
68193;BME280;55012;47.562;18.414;2023-06-10T06:03:00;100268.50;;;18.26;100.00
68193;BME280;55012;47.562;18.414;2023-06-10T06:05:26;100252.66;;;18.42;100.00
68193;BME280;55012;47.562;18.414;2023-06-10T06:07:51;100242.94;;;18.48;100.00
68193;BME280;55012;47.562;18.414;2023-06-10T06:10:18;100234.34;;;18.50;100.00
68193;BME280;55012;47.562;18.414;2023-06-10T06:12:44;100219.47;;;18.51;100.00
68193;BME280;55012;47.562;18.414;2023-06-10T06:15:10;100202.59;;;18.45;100.00
68193;BME280;55012;47.562;18.414;2023-06-10T06:17:36;100187.59;;;18.36;100.00
68193;BME280;55012;47.562;18.414;2023-06-10T06:20:02;100181.63;;;18.27;100.00
68193;BME280;55012;47.562;18.414;2023-06-10T06:22:28;100165.03;;;18.12;100.00
68193;BME280;55012;47.562;18.414;2023-06-10T06:24:53;100156.66;;;17.98;100.00
68193;BME280;55012;47.562;18.414;2023-06-10T06:27:19;100169.88;;;17.92;100.00
68193;BME280;55012;47.562;18.414;2023-06-10T06:29:44;100153.63;;;17.77;100.00
68193;BME280;55012;47.562;18.414;2023-06-10T06:32:10;100152.84;;;17.76;100.00
68193;BME280;55012;47.562;18.414;2023-06-10T06:34:35;100163.47;;;17.81;100.00
68193;BME280;55012;47.562;18.414;2023-06-10T06:37:00;100168.94;;;17.81;100.00
68193;BME280;55012;47.562;18.414;2023-06-10T06:39:26;100172.59;;;17.92;100.00
68193;BME280;55012;47.562;18.414;2023-06-10T06:41:53;100172.41;;;18.08;100.00
68193;BME280;55012;47.562;18.414;2023-06-10T06:44:18;100178.97;;;18.34;100.00
68193;BME280;55012;47.562;18.414;2023-06-10T06:46:43;100183.34;;;18.38;100.00
68193;BME280;55012;47.562;18.414;2023-06-10T06:49:09;100174.84;;;18.47;100.00
68193;BME280;55012;47.562;18.414;2023-06-10T06:51:34;100179.72;;;18.64;100.00
68193;BME280;55012;47.562;18.414;2023-06-10T06:54:00;100167.69;;;18.76;100.00
68193;BME280;55012;47.562;18.414;2023-06-10T06:56:26;100159.88;;;18.74;100.00
68193;BME280;55012;47.562;18.414;2023-06-10T06:58:53;100159.56;;;18.83;100.00
68193;BME280;55012;47.562;18.414;2023-06-10T07:01:18;100153.81;;;18.95;100.00
68193;BME280;55012;47.562;18.414;2023-06-10T07:03:44;100151.94;;;19.10;100.00
68193;BME280;55012;47.562;18.414;2023-06-10T07:06:09;100142.06;;;18.98;100.00
68193;BME280;55012;47.562;18.414;2023-06-10T07:08:35;100142.44;;;18.97;100.00
68193;BME280;55012;47.562;18.414;2023-06-10T07:11:00;100138.47;;;18.91;100.00
68193;BME280;55012;47.562;18.414;2023-06-10T07:13:26;100136.38;;;18.73;100.00
68193;BME280;55012;47.562;18.414;2023-06-10T07:15:51;100130.63;;;18.52;100.00
68193;BME280;55012;47.562;18.414;2023-06-10T07:18:16;100144.34;;;18.52;100.00
68193;BME280;55012;47.562;18.414;2023-06-10T07:20:42;100153.34;;;18.52;100.00
68193;BME280;55012;47.562;18.414;2023-06-10T07:23:08;100159.19;;;18.47;100.00
68193;BME280;55012;47.562;18.414;2023-06-10T07:25:33;100166.69;;;18.54;100.00
68193;BME280;55012;47.562;18.414;2023-06-10T07:27:58;100166.91;;;18.72;100.00
68193;BME280;55012;47.562;18.414;2023-06-10T07:30:24;100158.78;;;18.86;100.00
68193;BME280;55012;47.562;18.414;2023-06-10T07:32:51;100154.13;;;18.90;100.00
68193;BME280;55012;47.562;18.414;2023-06-10T07:35:16;100142.44;;;18.97;100.00
68193;BME280;55012;47.562;18.414;2023-06-10T07:37:42;100148.41;;;19.09;100.00
68193;BME280;55012;47.562;18.414;2023-06-10T07:40:08;100136.38;;;19.25;100.00
68193;BME280;55012;47.562;18.414;2023-06-10T07:42:35;100136.16;;;19.48;100.00
68193;BME280;55012;47.562;18.414;2023-06-10T07:45:01;100124.78;;;19.49;100.00
68193;BME280;55012;47.562;18.414;2023-06-10T07:47:28;100107.09;;;19.43;100.00
68193;BME280;55012;47.562;18.414;2023-06-10T07:49:53;100108.03;;;19.69;100.00
68193;BME280;55012;47.562;18.414;2023-06-10T07:52:19;100100.72;;;20.01;100.00
68193;BME280;55012;47.562;18.414;2023-06-10T07:54:44;100078.06;;;20.29;100.00
68193;BME280;55012;47.562;18.414;2023-06-10T07:57:10;100058.88;;;20.54;100.00
68193;BME280;55012;47.562;18.414;2023-06-10T07:59:35;100016.84;;;20.71;100.00
68193;BME280;55012;47.562;18.414;2023-06-10T08:02:01;99975.53;;;21.03;100.00
68193;BME280;55012;47.562;18.414;2023-06-10T08:04:26;99927.88;;;21.31;100.00
68193;BME280;55012;47.562;18.414;2023-06-10T08:06:52;99865.75;;;21.38;100.00
68193;BME280;55012;47.562;18.414;2023-06-10T08:09:17;99822.00;;;21.50;100.00
68193;BME280;55012;47.562;18.414;2023-06-10T08:11:44;99783.22;;;21.79;100.00
68193;BME280;55012;47.562;18.414;2023-06-10T08:14:09;99721.34;;;21.91;100.00
68193;BME280;55012;47.562;18.414;2023-06-10T08:16:35;99624.00;;;21.67;100.00
68193;BME280;55012;47.562;18.414;2023-06-10T08:19:00;99609.84;;;21.68;100.00
68193;BME280;55012;47.562;18.414;2023-06-10T08:21:25;99607.59;;;21.94;100.00
68193;BME280;55012;47.562;18.414;2023-06-10T08:23:53;99538.03;;;21.86;100.00
68193;BME280;55012;47.562;18.414;2023-06-10T08:26:19;99507.66;;;21.63;100.00
68193;BME280;55012;47.562;18.414;2023-06-10T08:28:45;99526.25;;;21.51;100.00
68193;BME280;55012;47.562;18.414;2023-06-10T08:31:10;99539.00;;;21.38;100.00
68193;BME280;55012;47.562;18.414;2023-06-10T08:33:36;99542.66;;;21.24;100.00
68193;BME280;55012;47.562;18.414;2023-06-10T08:36:01;99578.72;;;21.37;100.00
68193;BME280;55012;47.562;18.414;2023-06-10T08:38:27;99579.38;;;21.52;100.00
68193;BME280;55012;47.562;18.414;2023-06-10T08:40:56;99554.94;;;21.54;100.00
68193;BME280;55012;47.562;18.414;2023-06-10T08:43:39;99507.88;;;21.45;100.00
68193;BME280;55012;47.562;18.414;2023-06-10T08:46:08;99532.50;;;21.55;100.00
68193;BME280;55012;47.562;18.414;2023-06-10T08:48:35;99535.03;;;21.73;100.00
68193;BME280;55012;47.562;18.414;2023-06-10T08:51:04;99482.69;;;22.04;100.00
68193;BME280;55012;47.562;18.414;2023-06-10T08:53:31;99410.84;;;22.41;100.00
68193;BME280;55012;47.562;18.414;2023-06-10T08:56:02;99299.97;;;22.54;100.00
68193;BME280;55012;47.562;18.414;2023-06-10T08:58:29;99241.94;;;22.61;100.00
68193;BME280;55012;47.562;18.414;2023-06-10T09:00:58;99198.16;;;22.63;100.00
68193;BME280;55012;47.562;18.414;2023-06-10T09:03:25;99178.81;;;22.47;100.00
68193;BME280;55012;47.562;18.414;2023-06-10T09:05:51;99194.75;;;22.19;100.00
68193;BME280;55012;47.562;18.414;2023-06-10T09:08:16;99230.63;;;22.15;100.00
68193;BME280;55012;47.562;18.414;2023-06-10T09:10:42;99199.59;;;22.11;100.00
68193;BME280;55012;47.562;18.414;2023-06-10T09:13:08;99236.00;;;22.23;100.00
68193;BME280;55012;47.562;18.414;2023-06-10T09:15:33;99219.78;;;22.05;100.00
68193;BME280;55012;47.562;18.414;2023-06-10T09:17:59;99273.94;;;21.68;100.00
68193;BME280;55012;47.562;18.414;2023-06-10T09:20:25;99385.00;;;21.58;100.00
68193;BME280;55012;47.562;18.414;2023-06-10T09:22:51;99422.28;;;21.36;100.00
68193;BME280;55012;47.562;18.414;2023-06-10T09:25:16;99460.81;;;20.98;100.00
68193;BME280;55012;47.562;18.414;2023-06-10T09:27:49;99550.47;;;20.88;100.00
68193;BME280;55012;47.562;18.414;2023-06-10T09:30:29;99742.00;;;20.54;100.00
68193;BME280;55012;47.562;18.414;2023-06-10T09:32:57;99991.50;;;19.55;100.00
68193;BME280;55012;47.562;18.414;2023-06-10T09:35:27;100098.31;;;18.68;100.00
68193;BME280;55012;47.562;18.414;2023-06-10T09:37:53;100133.72;;;18.47;100.00
68193;BME280;55012;47.562;18.414;2023-06-10T09:40:19;100154.44;;;18.44;100.00
68193;BME280;55012;47.562;18.414;2023-06-10T09:42:45;100145.97;;;18.60;100.00
68193;BME280;55012;47.562;18.414;2023-06-10T09:45:10;100124.94;;;18.68;100.00
68193;BME280;55012;47.562;18.414;2023-06-10T09:47:36;100111.00;;;18.84;100.00
68193;BME280;55012;47.562;18.414;2023-06-10T09:50:01;99989.28;;;18.95;100.00
68193;BME280;55012;47.562;18.414;2023-06-10T09:52:28;99966.88;;;18.86;100.00
68193;BME280;55012;47.562;18.414;2023-06-10T09:55:01;99956.44;;;19.09;100.00
68193;BME280;55012;47.562;18.414;2023-06-10T09:57:30;99952.25;;;19.37;100.00
68193;BME280;55012;47.562;18.414;2023-06-10T09:59:57;99956.69;;;19.77;100.00
68193;BME280;55012;47.562;18.414;2023-06-10T10:02:23;99977.91;;;19.98;100.00
68193;BME280;55012;47.562;18.414;2023-06-10T10:04:48;100008.94;;;20.06;100.00
68193;BME280;55012;47.562;18.414;2023-06-10T10:07:14;100048.22;;;20.42;100.00
68193;BME280;55012;47.562;18.414;2023-06-10T10:09:40;100100.50;;;20.45;100.00
68193;BME280;55012;47.562;18.414;2023-06-10T10:12:16;100110.28;;;20.50;100.00
68193;BME280;55012;47.562;18.414;2023-06-10T10:14:46;100108.34;;;20.68;100.00
68193;BME280;55012;47.562;18.414;2023-06-10T10:17:14;100065.16;;;20.83;100.00
68193;BME280;55012;47.562;18.414;2023-06-10T10:19:46;99994.44;;;20.84;100.00
68193;BME280;55012;47.562;18.414;2023-06-10T10:22:37;99961.06;;;20.71;100.00
68193;BME280;55012;47.562;18.414;2023-06-10T10:25:09;99919.03;;;20.70;100.00
68193;BME280;55012;47.562;18.414;2023-06-10T10:27:49;99876.63;;;20.64;100.00
68193;BME280;55012;47.562;18.414;2023-06-10T10:30:17;99888.81;;;20.70;100.00
68193;BME280;55012;47.562;18.414;2023-06-10T10:35:20;99862.34;;;21.01;100.00
68193;BME280;55012;47.562;18.414;2023-06-10T10:37:48;99804.97;;;21.03;100.00
68193;BME280;55012;47.562;18.414;2023-06-10T10:40:15;99785.75;;;20.96;100.00
68193;BME280;55012;47.562;18.414;2023-06-10T10:42:42;99775.47;;;21.08;100.00
68193;BME280;55012;47.562;18.414;2023-06-10T10:45:09;99740.22;;;21.47;100.00
68193;BME280;55012;47.562;18.414;2023-06-10T10:47:35;99686.34;;;21.87;100.00
68193;BME280;55012;47.562;18.414;2023-06-10T10:50:15;99566.84;;;22.12;100.00
68193;BME280;55012;47.562;18.414;2023-06-10T10:53:02;99363.88;;;22.02;100.00
68193;BME280;55012;47.562;18.414;2023-06-10T10:55:28;99288.44;;;22.19;100.00
68193;BME280;55012;47.562;18.414;2023-06-10T10:57:55;99267.50;;;22.41;100.00
68193;BME280;55012;47.562;18.414;2023-06-10T11:00:27;99188.44;;;22.75;100.00
68193;BME280;55012;47.562;18.414;2023-06-10T11:02:58;99136.50;;;23.06;100.00
68193;BME280;55012;47.562;18.414;2023-06-10T11:05:43;99032.47;;;23.35;100.00
68193;BME280;55012;47.562;18.414;2023-06-10T11:08:10;98932.00;;;23.45;100.00
68193;BME280;55012;47.562;18.414;2023-06-10T11:10:40;98857.38;;;23.62;100.00
68193;BME280;55012;47.562;18.414;2023-06-10T11:13:08;98822.13;;;23.66;100.00
68193;BME280;55012;47.562;18.414;2023-06-10T11:15:39;98803.16;;;23.68;100.00
68193;BME280;55012;47.562;18.414;2023-06-10T11:18:13;98810.00;;;23.76;100.00
68193;BME280;55012;47.562;18.414;2023-06-10T11:26:21;98689.41;;;24.38;100.00
68193;BME280;55012;47.562;18.414;2023-06-10T11:31:26;98717.00;;;23.47;100.00
68193;BME280;55012;47.562;18.414;2023-06-10T11:33:57;98828.09;;;22.84;100.00
68193;BME280;55012;47.562;18.414;2023-06-10T11:36:24;98955.84;;;22.65;100.00
68193;BME280;55012;47.562;18.414;2023-06-10T11:38:54;99022.91;;;22.62;100.00
68193;BME280;55012;47.562;18.414;2023-06-10T11:41:30;99073.38;;;22.75;100.00
68193;BME280;55012;47.562;18.414;2023-06-10T11:44:16;99037.91;;;22.93;100.00
68193;BME280;55012;47.562;18.414;2023-06-10T11:46:41;98960.41;;;22.71;100.00
68193;BME280;55012;47.562;18.414;2023-06-10T11:49:08;99004.19;;;22.69;100.00
68193;BME280;55012;47.562;18.414;2023-06-10T11:51:35;99018.03;;;22.82;100.00
68193;BME280;55012;47.562;18.414;2023-06-10T11:54:01;98925.25;;;22.76;100.00
68193;BME280;55012;47.562;18.414;2023-06-10T11:56:27;98872.69;;;22.66;100.00
68193;BME280;55012;47.562;18.414;2023-06-10T11:58:55;98855.81;;;22.64;100.00
68193;BME280;55012;47.562;18.414;2023-06-10T12:01:26;98839.19;;;22.68;100.00
68193;BME280;55012;47.562;18.414;2023-06-10T12:04:04;98818.69;;;22.69;100.00
68193;BME280;55012;47.562;18.414;2023-06-10T12:06:49;98795.72;;;22.72;100.00
68193;BME280;55012;47.562;18.414;2023-06-10T12:11:42;98840.72;;;22.69;100.00
68193;BME280;55012;47.562;18.414;2023-06-10T12:14:08;98857.75;;;22.80;100.00
68193;BME280;55012;47.562;18.414;2023-06-10T12:16:34;98844.38;;;22.95;100.00
68193;BME280;55012;47.562;18.414;2023-06-10T12:19:03;98834.44;;;22.97;100.00
68193;BME280;55012;47.562;18.414;2023-06-10T12:21:30;98855.53;;;23.04;100.00
68193;BME280;55012;47.562;18.414;2023-06-10T12:24:14;98857.41;;;23.07;100.00
68193;BME280;55012;47.562;18.414;2023-06-10T12:26:44;98883.13;;;23.04;100.00
68193;BME280;55012;47.562;18.414;2023-06-10T12:29:23;98909.63;;;23.14;100.00
68193;BME280;55012;47.562;18.414;2023-06-10T12:31:58;98883.16;;;23.30;100.00
68193;BME280;55012;47.562;18.414;2023-06-10T12:34:38;98862.44;;;23.50;100.00
68193;BME280;55012;47.562;18.414;2023-06-10T12:37:05;98821.22;;;23.81;100.00
68193;BME280;55012;47.562;18.414;2023-06-10T12:39:32;98769.56;;;24.04;100.00
68193;BME280;55012;47.562;18.414;2023-06-10T12:41:58;98711.00;;;24.09;100.00
68193;BME280;55012;47.562;18.414;2023-06-10T12:44:34;98688.19;;;24.18;100.00
68193;BME280;55012;47.562;18.414;2023-06-10T12:47:06;98667.28;;;24.38;100.00